sensor_id;sensor_type;location;lat;lon;timestamp;temperature;humidity
52899;DHT22;38763;53.096;6.062;2023-05-14T00:00:43;11.50;99.90
52899;DHT22;38763;53.096;6.062;2023-05-14T00:03:08;11.30;99.90
52899;DHT22;38763;53.096;6.062;2023-05-14T00:05:34;11.20;99.90
52899;DHT22;38763;53.096;6.062;2023-05-14T00:08:00;11.20;99.90
52899;DHT22;38763;53.096;6.062;2023-05-14T00:10:26;11.30;99.90
52899;DHT22;38763;53.096;6.062;2023-05-14T00:12:52;11.20;99.90
52899;DHT22;38763;53.096;6.062;2023-05-14T00:15:18;11.20;99.90
52899;DHT22;38763;53.096;6.062;2023-05-14T00:17:44;11.20;99.90
52899;DHT22;38763;53.096;6.062;2023-05-14T00:20:10;11.10;99.90
52899;DHT22;38763;53.096;6.062;2023-05-14T00:22:37;11.20;99.90
52899;DHT22;38763;53.096;6.062;2023-05-14T00:25:03;11.20;99.90
52899;DHT22;38763;53.096;6.062;2023-05-14T00:27:29;11.20;99.90
52899;DHT22;38763;53.096;6.062;2023-05-14T00:29:55;11.20;99.90
52899;DHT22;38763;53.096;6.062;2023-05-14T00:32:20;11.10;99.90
52899;DHT22;38763;53.096;6.062;2023-05-14T00:34:46;11.10;99.90
52899;DHT22;38763;53.096;6.062;2023-05-14T00:37:12;11.20;99.90
52899;DHT22;38763;53.096;6.062;2023-05-14T00:39:37;11.10;99.90
52899;DHT22;38763;53.096;6.062;2023-05-14T00:42:03;11.10;99.90
52899;DHT22;38763;53.096;6.062;2023-05-14T00:44:29;11.00;99.90
52899;DHT22;38763;53.096;6.062;2023-05-14T00:46:54;11.00;99.90
52899;DHT22;38763;53.096;6.062;2023-05-14T00:49:20;11.00;99.90
52899;DHT22;38763;53.096;6.062;2023-05-14T00:51:46;11.10;99.90
52899;DHT22;38763;53.096;6.062;2023-05-14T00:54:15;11.10;99.90
52899;DHT22;38763;53.096;6.062;2023-05-14T00:56:44;11.00;99.90
52899;DHT22;38763;53.096;6.062;2023-05-14T00:59:09;11.00;99.90
52899;DHT22;38763;53.096;6.062;2023-05-14T01:01:36;10.90;99.90
52899;DHT22;38763;53.096;6.062;2023-05-14T01:04:02;11.00;99.90
52899;DHT22;38763;53.096;6.062;2023-05-14T01:06:47;10.90;99.90
52899;DHT22;38763;53.096;6.062;2023-05-14T01:09:30;11.00;99.90
52899;DHT22;38763;53.096;6.062;2023-05-14T01:14:59;10.90;99.90
52899;DHT22;38763;53.096;6.062;2023-05-14T01:17:28;10.90;99.90
52899;DHT22;38763;53.096;6.062;2023-05-14T01:19:55;10.90;99.90
52899;DHT22;38763;53.096;6.062;2023-05-14T01:22:22;10.90;99.90
52899;DHT22;38763;53.096;6.062;2023-05-14T01:24:47;10.80;99.90
52899;DHT22;38763;53.096;6.062;2023-05-14T01:30:29;10.80;99.90
52899;DHT22;38763;53.096;6.062;2023-05-14T01:32:58;10.70;99.90
52899;DHT22;38763;53.096;6.062;2023-05-14T01:35:28;10.70;99.90
52899;DHT22;38763;53.096;6.062;2023-05-14T01:37:56;10.70;99.90
52899;DHT22;38763;53.096;6.062;2023-05-14T01:40:23;10.60;99.90
52899;DHT22;38763;53.096;6.062;2023-05-14T01:42:49;10.70;99.90
52899;DHT22;38763;53.096;6.062;2023-05-14T01:45:18;10.70;99.90
52899;DHT22;38763;53.096;6.062;2023-05-14T01:47:44;10.70;99.90
52899;DHT22;38763;53.096;6.062;2023-05-14T01:50:10;10.70;99.90
52899;DHT22;38763;53.096;6.062;2023-05-14T01:52:35;10.70;99.90
52899;DHT22;38763;53.096;6.062;2023-05-14T01:55:01;10.70;99.90
52899;DHT22;38763;53.096;6.062;2023-05-14T01:57:27;10.70;99.90
52899;DHT22;38763;53.096;6.062;2023-05-14T01:59:52;10.60;99.90
52899;DHT22;38763;53.096;6.062;2023-05-14T02:02:18;10.70;99.90
52899;DHT22;38763;53.096;6.062;2023-05-14T02:04:43;10.70;99.90
52899;DHT22;38763;53.096;6.062;2023-05-14T02:07:09;10.70;99.90
52899;DHT22;38763;53.096;6.062;2023-05-14T02:09:35;10.70;99.90
52899;DHT22;38763;53.096;6.062;2023-05-14T02:12:00;10.70;99.90
52899;DHT22;38763;53.096;6.062;2023-05-14T02:14:26;10.70;99.90
52899;DHT22;38763;53.096;6.062;2023-05-14T02:16:52;10.70;99.90
52899;DHT22;38763;53.096;6.062;2023-05-14T02:19:17;10.70;99.90
52899;DHT22;38763;53.096;6.062;2023-05-14T02:21:43;10.70;99.90
52899;DHT22;38763;53.096;6.062;2023-05-14T02:24:08;10.60;99.90
52899;DHT22;38763;53.096;6.062;2023-05-14T02:26:34;10.60;99.90
52899;DHT22;38763;53.096;6.062;2023-05-14T02:29:00;10.60;99.90
52899;DHT22;38763;53.096;6.062;2023-05-14T02:31:25;10.60;99.90
52899;DHT22;38763;53.096;6.062;2023-05-14T02:33:51;10.60;99.90
52899;DHT22;38763;53.096;6.062;2023-05-14T02:36:17;10.50;99.90
52899;DHT22;38763;53.096;6.062;2023-05-14T02:38:42;10.50;99.90
52899;DHT22;38763;53.096;6.062;2023-05-14T02:41:08;10.50;99.90
52899;DHT22;38763;53.096;6.062;2023-05-14T02:43:33;10.50;99.90
52899;DHT22;38763;53.096;6.062;2023-05-14T02:45:59;10.50;99.90
52899;DHT22;38763;53.096;6.062;2023-05-14T02:48:24;10.50;99.90
52899;DHT22;38763;53.096;6.062;2023-05-14T02:50:50;10.50;99.90
52899;DHT22;38763;53.096;6.062;2023-05-14T02:53:17;10.50;99.90
52899;DHT22;38763;53.096;6.062;2023-05-14T02:55:42;10.50;99.90
52899;DHT22;38763;53.096;6.062;2023-05-14T02:58:08;10.50;99.90
52899;DHT22;38763;53.096;6.062;2023-05-14T03:00:34;10.50;99.90
52899;DHT22;38763;53.096;6.062;2023-05-14T03:03:00;10.50;99.90
52899;DHT22;38763;53.096;6.062;2023-05-14T03:05:26;10.50;99.90
52899;DHT22;38763;53.096;6.062;2023-05-14T03:07:52;10.50;99.90
52899;DHT22;38763;53.096;6.062;2023-05-14T03:10:18;10.50;99.90
52899;DHT22;38763;53.096;6.062;2023-05-14T03:12:44;10.40;99.90
52899;DHT22;38763;53.096;6.062;2023-05-14T03:15:10;10.50;99.90
52899;DHT22;38763;53.096;6.062;2023-05-14T03:17:36;10.40;99.90
52899;DHT22;38763;53.096;6.062;2023-05-14T03:20:02;10.40;99.90
52899;DHT22;38763;53.096;6.062;2023-05-14T03:22:28;10.40;99.90
52899;DHT22;38763;53.096;6.062;2023-05-14T03:24:53;10.40;99.90
52899;DHT22;38763;53.096;6.062;2023-05-14T03:27:19;10.50;99.90
52899;DHT22;38763;53.096;6.062;2023-05-14T03:29:45;10.40;99.90
52899;DHT22;38763;53.096;6.062;2023-05-14T03:32:11;10.50;99.90
52899;DHT22;38763;53.096;6.062;2023-05-14T03:34:36;10.60;99.90
52899;DHT22;38763;53.096;6.062;2023-05-14T03:37:02;10.40;99.90
52899;DHT22;38763;53.096;6.062;2023-05-14T03:39:28;10.50;99.90
52899;DHT22;38763;53.096;6.062;2023-05-14T03:41:53;10.50;99.90
52899;DHT22;38763;53.096;6.062;2023-05-14T03:44:21;10.50;99.90
52899;DHT22;38763;53.096;6.062;2023-05-14T03:46:47;10.50;99.90
52899;DHT22;38763;53.096;6.062;2023-05-14T03:49:12;10.50;99.90
52899;DHT22;38763;53.096;6.062;2023-05-14T03:51:38;10.40;99.90
52899;DHT22;38763;53.096;6.062;2023-05-14T03:54:04;10.50;99.90
52899;DHT22;38763;53.096;6.062;2023-05-14T03:56:30;10.50;99.90
52899;DHT22;38763;53.096;6.062;2023-05-14T03:58:55;10.50;99.90
52899;DHT22;38763;53.096;6.062;2023-05-14T04:01:21;10.50;99.90
52899;DHT22;38763;53.096;6.062;2023-05-14T04:03:46;10.50;99.90
52899;DHT22;38763;53.096;6.062;2023-05-14T04:06:12;10.50;99.90
52899;DHT22;38763;53.096;6.062;2023-05-14T04:08:37;10.50;99.90
52899;DHT22;38763;53.096;6.062;2023-05-14T04:11:03;10.50;99.90
52899;DHT22;38763;53.096;6.062;2023-05-14T04:13:29;10.60;99.90
52899;DHT22;38763;53.096;6.062;2023-05-14T04:15:54;10.60;99.90
52899;DHT22;38763;53.096;6.062;2023-05-14T04:18:20;10.60;99.90
52899;DHT22;38763;53.096;6.062;2023-05-14T04:20:45;10.70;99.90
52899;DHT22;38763;53.096;6.062;2023-05-14T04:23:11;10.70;99.90
52899;DHT22;38763;53.096;6.062;2023-05-14T04:25:37;10.70;99.90
52899;DHT22;38763;53.096;6.062;2023-05-14T04:28:02;10.80;99.90
52899;DHT22;38763;53.096;6.062;2023-05-14T04:30:28;10.90;99.90
52899;DHT22;38763;53.096;6.062;2023-05-14T04:32:54;10.90;99.90
52899;DHT22;38763;53.096;6.062;2023-05-14T04:35:20;10.90;99.90
52899;DHT22;38763;53.096;6.062;2023-05-14T04:37:46;10.90;99.90
52899;DHT22;38763;53.096;6.062;2023-05-14T04:40:13;11.00;99.90
52899;DHT22;38763;53.096;6.062;2023-05-14T04:42:41;11.10;99.90
52899;DHT22;38763;53.096;6.062;2023-05-14T04:45:07;11.10;99.90
52899;DHT22;38763;53.096;6.062;2023-05-14T04:47:33;11.10;99.90
52899;DHT22;38763;53.096;6.062;2023-05-14T04:49:59;11.20;99.90
52899;DHT22;38763;53.096;6.062;2023-05-14T04:52:25;11.30;99.90
52899;DHT22;38763;53.096;6.062;2023-05-14T04:54:50;11.40;99.90
52899;DHT22;38763;53.096;6.062;2023-05-14T04:57:16;11.50;99.90
52899;DHT22;38763;53.096;6.062;2023-05-14T04:59:42;11.50;99.90
52899;DHT22;38763;53.096;6.062;2023-05-14T05:02:07;11.60;99.90
52899;DHT22;38763;53.096;6.062;2023-05-14T05:04:33;11.50;99.90
52899;DHT22;38763;53.096;6.062;2023-05-14T05:06:59;11.50;99.90
52899;DHT22;38763;53.096;6.062;2023-05-14T05:09:24;11.60;99.90
52899;DHT22;38763;53.096;6.062;2023-05-14T05:11:50;11.70;99.90
52899;DHT22;38763;53.096;6.062;2023-05-14T05:14:16;11.60;99.90
52899;DHT22;38763;53.096;6.062;2023-05-14T05:16:41;11.60;99.90
52899;DHT22;38763;53.096;6.062;2023-05-14T05:19:07;11.70;99.90
52899;DHT22;38763;53.096;6.062;2023-05-14T05:21:34;11.80;99.90
52899;DHT22;38763;53.096;6.062;2023-05-14T05:23:59;11.90;99.90
52899;DHT22;38763;53.096;6.062;2023-05-14T05:26:25;11.80;99.90
52899;DHT22;38763;53.096;6.062;2023-05-14T05:28:51;11.90;99.90
52899;DHT22;38763;53.096;6.062;2023-05-14T05:31:17;12.00;99.90
52899;DHT22;38763;53.096;6.062;2023-05-14T05:33:43;12.00;99.90
52899;DHT22;38763;53.096;6.062;2023-05-14T05:36:08;12.00;99.90
52899;DHT22;38763;53.096;6.062;2023-05-14T05:38:34;12.10;99.90
52899;DHT22;38763;53.096;6.062;2023-05-14T05:41:00;12.10;99.90
52899;DHT22;38763;53.096;6.062;2023-05-14T05:43:25;12.10;99.90
52899;DHT22;38763;53.096;6.062;2023-05-14T05:45:53;12.20;99.90
52899;DHT22;38763;53.096;6.062;2023-05-14T05:48:18;12.20;99.90
52899;DHT22;38763;53.096;6.062;2023-05-14T05:50:46;12.20;99.90
52899;DHT22;38763;53.096;6.062;2023-05-14T05:53:13;12.30;99.90
52899;DHT22;38763;53.096;6.062;2023-05-14T05:55:41;12.20;99.90
52899;DHT22;38763;53.096;6.062;2023-05-14T05:58:06;12.20;99.90
52899;DHT22;38763;53.096;6.062;2023-05-14T06:00:32;12.20;99.90
52899;DHT22;38763;53.096;6.062;2023-05-14T06:02:58;12.30;99.90
52899;DHT22;38763;53.096;6.062;2023-05-14T06:05:24;12.30;99.90
52899;DHT22;38763;53.096;6.062;2023-05-14T06:07:49;12.30;99.90
52899;DHT22;38763;53.096;6.062;2023-05-14T06:10:15;12.30;99.90
52899;DHT22;38763;53.096;6.062;2023-05-14T06:12:41;12.40;99.90
52899;DHT22;38763;53.096;6.062;2023-05-14T06:15:07;12.40;99.90
52899;DHT22;38763;53.096;6.062;2023-05-14T06:17:32;12.40;99.90
52899;DHT22;38763;53.096;6.062;2023-05-14T06:19:58;12.50;99.90
52899;DHT22;38763;53.096;6.062;2023-05-14T06:22:24;12.50;99.90
52899;DHT22;38763;53.096;6.062;2023-05-14T06:24:49;12.40;99.90
52899;DHT22;38763;53.096;6.062;2023-05-14T06:27:15;12.50;99.90
52899;DHT22;38763;53.096;6.062;2023-05-14T06:29:41;12.40;99.90
52899;DHT22;38763;53.096;6.062;2023-05-14T06:32:07;12.50;99.90
52899;DHT22;38763;53.096;6.062;2023-05-14T06:34:32;12.70;99.90
52899;DHT22;38763;53.096;6.062;2023-05-14T06:36:58;12.70;99.90
52899;DHT22;38763;53.096;6.062;2023-05-14T06:39:24;12.80;99.90
52899;DHT22;38763;53.096;6.062;2023-05-14T06:41:50;12.70;99.90
52899;DHT22;38763;53.096;6.062;2023-05-14T06:44:18;12.90;99.90
52899;DHT22;38763;53.096;6.062;2023-05-14T06:46:43;12.90;99.90
52899;DHT22;38763;53.096;6.062;2023-05-14T06:49:09;13.00;99.90
52899;DHT22;38763;53.096;6.062;2023-05-14T06:51:35;13.10;99.90
52899;DHT22;38763;53.096;6.062;2023-05-14T06:54:00;13.20;99.90
52899;DHT22;38763;53.096;6.062;2023-05-14T06:56:26;13.40;99.90
52899;DHT22;38763;53.096;6.062;2023-05-14T06:58:52;13.60;99.90
52899;DHT22;38763;53.096;6.062;2023-05-14T07:01:17;13.70;99.90
52899;DHT22;38763;53.096;6.062;2023-05-14T07:03:43;13.80;99.90
52899;DHT22;38763;53.096;6.062;2023-05-14T07:06:09;13.80;99.90
52899;DHT22;38763;53.096;6.062;2023-05-14T07:08:34;13.90;99.90
52899;DHT22;38763;53.096;6.062;2023-05-14T07:11:00;14.00;99.90
52899;DHT22;38763;53.096;6.062;2023-05-14T07:13:26;13.90;99.90
52899;DHT22;38763;53.096;6.062;2023-05-14T07:15:53;14.00;99.90
52899;DHT22;38763;53.096;6.062;2023-05-14T07:18:20;14.00;99.90
52899;DHT22;38763;53.096;6.062;2023-05-14T07:20:46;13.90;99.90
52899;DHT22;38763;53.096;6.062;2023-05-14T07:23:12;14.10;99.90
52899;DHT22;38763;53.096;6.062;2023-05-14T07:25:38;14.00;99.90
52899;DHT22;38763;53.096;6.062;2023-05-14T07:28:03;14.00;99.90
52899;DHT22;38763;53.096;6.062;2023-05-14T07:30:29;14.20;99.90
52899;DHT22;38763;53.096;6.062;2023-05-14T07:32:55;14.80;99.90
52899;DHT22;38763;53.096;6.062;2023-05-14T07:35:21;15.40;99.90
52899;DHT22;38763;53.096;6.062;2023-05-14T07:37:47;16.00;99.90
52899;DHT22;38763;53.096;6.062;2023-05-14T07:40:12;16.80;99.90
52899;DHT22;38763;53.096;6.062;2023-05-14T07:42:38;16.90;99.90
52899;DHT22;38763;53.096;6.062;2023-05-14T07:45:04;17.00;99.90
52899;DHT22;38763;53.096;6.062;2023-05-14T07:47:30;17.10;99.90
52899;DHT22;38763;53.096;6.062;2023-05-14T07:49:56;16.40;99.90
52899;DHT22;38763;53.096;6.062;2023-05-14T07:52:22;16.50;99.90
52899;DHT22;38763;53.096;6.062;2023-05-14T07:54:50;16.50;99.90
52899;DHT22;38763;53.096;6.062;2023-05-14T07:57:16;16.70;99.90
52899;DHT22;38763;53.096;6.062;2023-05-14T07:59:42;16.40;99.90
52899;DHT22;38763;53.096;6.062;2023-05-14T08:02:08;16.70;99.90
52899;DHT22;38763;53.096;6.062;2023-05-14T08:04:37;17.10;99.90
52899;DHT22;38763;53.096;6.062;2023-05-14T08:07:04;16.70;99.90
52899;DHT22;38763;53.096;6.062;2023-05-14T08:09:29;17.10;99.90
52899;DHT22;38763;53.096;6.062;2023-05-14T08:11:55;17.10;99.90
52899;DHT22;38763;53.096;6.062;2023-05-14T08:14:21;16.80;99.90
52899;DHT22;38763;53.096;6.062;2023-05-14T08:16:46;16.20;99.90
52899;DHT22;38763;53.096;6.062;2023-05-14T08:19:13;16.50;99.90
52899;DHT22;38763;53.096;6.062;2023-05-14T08:21:39;16.40;99.90
52899;DHT22;38763;53.096;6.062;2023-05-14T08:24:05;16.50;99.90
52899;DHT22;38763;53.096;6.062;2023-05-14T08:26:30;16.70;99.90
52899;DHT22;38763;53.096;6.062;2023-05-14T08:28:56;17.00;99.90
52899;DHT22;38763;53.096;6.062;2023-05-14T08:31:22;17.70;99.90
52899;DHT22;38763;53.096;6.062;2023-05-14T08:33:48;18.00;99.90
52899;DHT22;38763;53.096;6.062;2023-05-14T08:36:13;17.70;99.90
52899;DHT22;38763;53.096;6.062;2023-05-14T08:38:39;17.80;99.90
52899;DHT22;38763;53.096;6.062;2023-05-14T08:41:05;17.60;99.90
52899;DHT22;38763;53.096;6.062;2023-05-14T08:43:56;17.50;99.90
52899;DHT22;38763;53.096;6.062;2023-05-14T08:46:26;17.10;99.90
52899;DHT22;38763;53.096;6.062;2023-05-14T08:48:57;17.30;99.90
52899;DHT22;38763;53.096;6.062;2023-05-14T08:51:25;17.70;99.90
52899;DHT22;38763;53.096;6.062;2023-05-14T08:53:52;18.00;99.90
52899;DHT22;38763;53.096;6.062;2023-05-14T08:56:18;18.30;99.90
52899;DHT22;38763;53.096;6.062;2023-05-14T08:58:44;18.50;99.90
52899;DHT22;38763;53.096;6.062;2023-05-14T09:01:10;18.10;99.90
52899;DHT22;38763;53.096;6.062;2023-05-14T09:03:36;18.60;99.90
52899;DHT22;38763;53.096;6.062;2023-05-14T09:06:02;18.50;99.90
52899;DHT22;38763;53.096;6.062;2023-05-14T09:08:28;18.50;99.90
52899;DHT22;38763;53.096;6.062;2023-05-14T09:10:54;18.40;99.90
52899;DHT22;38763;53.096;6.062;2023-05-14T09:13:21;18.60;99.90
52899;DHT22;38763;53.096;6.062;2023-05-14T09:15:47;18.80;99.90
52899;DHT22;38763;53.096;6.062;2023-05-14T09:18:14;19.10;99.90
52899;DHT22;38763;53.096;6.062;2023-05-14T09:20:40;19.50;99.90
52899;DHT22;38763;53.096;6.062;2023-05-14T09:23:05;19.40;99.90
52899;DHT22;38763;53.096;6.062;2023-05-14T09:25:31;18.90;99.90
52899;DHT22;38763;53.096;6.062;2023-05-14T09:27:57;18.60;99.90
52899;DHT22;38763;53.096;6.062;2023-05-14T09:30:23;19.10;99.90
52899;DHT22;38763;53.096;6.062;2023-05-14T09:32:52;19.00;99.90
52899;DHT22;38763;53.096;6.062;2023-05-14T09:35:20;19.30;99.90
52899;DHT22;38763;53.096;6.062;2023-05-14T09:37:51;19.80;99.90
52899;DHT22;38763;53.096;6.062;2023-05-14T09:40:21;20.10;99.90
52899;DHT22;38763;53.096;6.062;2023-05-14T09:42:47;19.50;99.90
52899;DHT22;38763;53.096;6.062;2023-05-14T09:45:14;19.20;99.90
52899;DHT22;38763;53.096;6.062;2023-05-14T09:47:40;19.20;99.90
52899;DHT22;38763;53.096;6.062;2023-05-14T09:50:07;18.90;99.90
52899;DHT22;38763;53.096;6.062;2023-05-14T09:52:33;19.10;99.90
52899;DHT22;38763;53.096;6.062;2023-05-14T09:54:59;19.50;99.90
52899;DHT22;38763;53.096;6.062;2023-05-14T09:57:25;20.20;99.90
52899;DHT22;38763;53.096;6.062;2023-05-14T09:59:51;20.70;99.90
52899;DHT22;38763;53.096;6.062;2023-05-14T10:02:23;20.50;99.90
52899;DHT22;38763;53.096;6.062;2023-05-14T10:04:50;20.80;99.90
52899;DHT22;38763;53.096;6.062;2023-05-14T10:07:21;20.70;99.90
52899;DHT22;38763;53.096;6.062;2023-05-14T10:09:47;21.10;99.90
52899;DHT22;38763;53.096;6.062;2023-05-14T10:12:15;20.80;99.90
52899;DHT22;38763;53.096;6.062;2023-05-14T10:14:46;20.70;99.90
52899;DHT22;38763;53.096;6.062;2023-05-14T10:17:20;20.70;99.90
52899;DHT22;38763;53.096;6.062;2023-05-14T10:19:50;20.40;99.90
52899;DHT22;38763;53.096;6.062;2023-05-14T10:22:21;20.50;99.90
52899;DHT22;38763;53.096;6.062;2023-05-14T10:24:47;20.60;99.90
52899;DHT22;38763;53.096;6.062;2023-05-14T10:27:20;20.40;99.90
52899;DHT22;38763;53.096;6.062;2023-05-14T10:29:53;20.50;99.90
52899;DHT22;38763;53.096;6.062;2023-05-14T10:32:23;20.90;99.90
52899;DHT22;38763;53.096;6.062;2023-05-14T10:34:53;21.20;99.90
52899;DHT22;38763;53.096;6.062;2023-05-14T10:37:24;21.20;99.90
52899;DHT22;38763;53.096;6.062;2023-05-14T10:39:52;21.00;99.90
52899;DHT22;38763;53.096;6.062;2023-05-14T10:42:26;21.20;99.90
52899;DHT22;38763;53.096;6.062;2023-05-14T10:45:01;21.20;99.90
52899;DHT22;38763;53.096;6.062;2023-05-14T10:47:30;21.00;99.90
52899;DHT22;38763;53.096;6.062;2023-05-14T10:50:01;21.10;99.90
52899;DHT22;38763;53.096;6.062;2023-05-14T10:52:28;21.50;99.90
52899;DHT22;38763;53.096;6.062;2023-05-14T10:54:56;21.10;99.90
52899;DHT22;38763;53.096;6.062;2023-05-14T10:57:28;21.40;99.90
52899;DHT22;38763;53.096;6.062;2023-05-14T10:59:55;21.60;99.90
52899;DHT22;38763;53.096;6.062;2023-05-14T11:02:26;21.60;99.90
52899;DHT22;38763;53.096;6.062;2023-05-14T11:07:32;21.10;99.90
52899;DHT22;38763;53.096;6.062;2023-05-14T11:10:10;21.30;99.90
52899;DHT22;38763;53.096;6.062;2023-05-14T11:12:39;21.40;99.90
52899;DHT22;38763;53.096;6.062;2023-05-14T11:15:10;21.30;99.90
52899;DHT22;38763;53.096;6.062;2023-05-14T11:17:37;21.10;99.90
52899;DHT22;38763;53.096;6.062;2023-05-14T11:20:05;21.00;99.90
52899;DHT22;38763;53.096;6.062;2023-05-14T11:22:32;20.70;99.90
52899;DHT22;38763;53.096;6.062;2023-05-14T11:24:57;20.60;99.90
52899;DHT22;38763;53.096;6.062;2023-05-14T11:27:23;20.50;99.90
52899;DHT22;38763;53.096;6.062;2023-05-14T11:29:49;20.60;99.90
52899;DHT22;38763;53.096;6.062;2023-05-14T11:32:16;20.40;99.90
52899;DHT22;38763;53.096;6.062;2023-05-14T11:34:44;20.50;99.90
52899;DHT22;38763;53.096;6.062;2023-05-14T11:37:12;20.80;99.90
52899;DHT22;38763;53.096;6.062;2023-05-14T11:39:38;20.90;99.90
52899;DHT22;38763;53.096;6.062;2023-05-14T11:42:09;20.70;99.90
52899;DHT22;38763;53.096;6.062;2023-05-14T11:44:37;20.70;99.90
52899;DHT22;38763;53.096;6.062;2023-05-14T11:47:03;20.70;99.90
52899;DHT22;38763;53.096;6.062;2023-05-14T11:49:30;20.50;99.90
52899;DHT22;38763;53.096;6.062;2023-05-14T11:52:07;20.50;99.90
52899;DHT22;38763;53.096;6.062;2023-05-14T11:54:34;20.60;99.90
52899;DHT22;38763;53.096;6.062;2023-05-14T11:57:09;20.60;99.90
52899;DHT22;38763;53.096;6.062;2023-05-14T11:59:35;20.50;99.90
52899;DHT22;38763;53.096;6.062;2023-05-14T12:02:02;20.80;99.90
52899;DHT22;38763;53.096;6.062;2023-05-14T12:04:29;20.80;99.90
52899;DHT22;38763;53.096;6.062;2023-05-14T12:06:58;20.70;99.90
52899;DHT22;38763;53.096;6.062;2023-05-14T12:09:24;20.70;99.90
52899;DHT22;38763;53.096;6.062;2023-05-14T12:11:51;20.60;99.90
52899;DHT22;38763;53.096;6.062;2023-05-14T12:16:43;20.80;99.90
52899;DHT22;38763;53.096;6.062;2023-05-14T12:19:11;21.00;99.90
52899;DHT22;38763;53.096;6.062;2023-05-14T12:21:38;21.10;99.90
52899;DHT22;38763;53.096;6.062;2023-05-14T12:24:11;20.80;99.90
52899;DHT22;38763;53.096;6.062;2023-05-14T12:26:37;20.90;99.90
52899;DHT22;38763;53.096;6.062;2023-05-14T12:29:04;20.90;99.90
52899;DHT22;38763;53.096;6.062;2023-05-14T12:31:34;20.70;99.90
52899;DHT22;38763;53.096;6.062;2023-05-14T12:34:01;20.80;99.90
52899;DHT22;38763;53.096;6.062;2023-05-14T12:36:28;21.00;99.90
52899;DHT22;38763;53.096;6.062;2023-05-14T12:38:59;21.20;99.90
52899;DHT22;38763;53.096;6.062;2023-05-14T12:41:26;21.50;99.90
52899;DHT22;38763;53.096;6.062;2023-05-14T12:43:52;21.50;99.90
52899;DHT22;38763;53.096;6.062;2023-05-14T12:46:17;21.10;99.90
52899;DHT22;38763;53.096;6.062;2023-05-14T12:48:43;21.30;99.90
52899;DHT22;38763;53.096;6.062;2023-05-14T12:51:09;21.30;99.90
52899;DHT22;38763;53.096;6.062;2023-05-14T12:53:35;21.50;99.90
52899;DHT22;38763;53.096;6.062;2023-05-14T12:56:00;21.40;99.90
52899;DHT22;38763;53.096;6.062;2023-05-14T12:58:26;21.60;99.90
52899;DHT22;38763;53.096;6.062;2023-05-14T13:00:52;21.50;99.90
52899;DHT22;38763;53.096;6.062;2023-05-14T13:03:17;21.70;99.90
52899;DHT22;38763;53.096;6.062;2023-05-14T13:05:43;21.90;99.90
52899;DHT22;38763;53.096;6.062;2023-05-14T13:08:09;21.70;99.90
52899;DHT22;38763;53.096;6.062;2023-05-14T13:10:34;21.70;99.90
52899;DHT22;38763;53.096;6.062;2023-05-14T13:13:00;21.80;99.90
52899;DHT22;38763;53.096;6.062;2023-05-14T13:15:29;21.80;99.90
52899;DHT22;38763;53.096;6.062;2023-05-14T13:17:56;21.80;99.90
52899;DHT22;38763;53.096;6.062;2023-05-14T13:20:21;21.50;99.90
52899;DHT22;38763;53.096;6.062;2023-05-14T13:22:48;21.50;99.90
52899;DHT22;38763;53.096;6.062;2023-05-14T13:25:13;21.40;99.90
52899;DHT22;38763;53.096;6.062;2023-05-14T13:27:39;21.50;99.90
52899;DHT22;38763;53.096;6.062;2023-05-14T13:30:05;21.50;99.90
52899;DHT22;38763;53.096;6.062;2023-05-14T13:32:31;21.50;99.90
52899;DHT22;38763;53.096;6.062;2023-05-14T13:34:56;21.50;99.90
52899;DHT22;38763;53.096;6.062;2023-05-14T13:37:23;21.40;99.90
52899;DHT22;38763;53.096;6.062;2023-05-14T13:39:49;21.70;99.90
52899;DHT22;38763;53.096;6.062;2023-05-14T13:42:14;21.80;99.60
52899;DHT22;38763;53.096;6.062;2023-05-14T13:44:40;21.90;99.60
52899;DHT22;38763;53.096;6.062;2023-05-14T13:47:06;21.70;99.30
52899;DHT22;38763;53.096;6.062;2023-05-14T13:49:31;21.80;99.90
52899;DHT22;38763;53.096;6.062;2023-05-14T13:51:57;22.00;99.90
52899;DHT22;38763;53.096;6.062;2023-05-14T13:54:22;21.80;99.90
52899;DHT22;38763;53.096;6.062;2023-05-14T13:56:48;21.90;99.80
52899;DHT22;38763;53.096;6.062;2023-05-14T13:59:14;21.50;99.90
52899;DHT22;38763;53.096;6.062;2023-05-14T14:01:39;21.20;99.90
52899;DHT22;38763;53.096;6.062;2023-05-14T14:04:08;21.10;99.90
52899;DHT22;38763;53.096;6.062;2023-05-14T14:06:34;21.20;99.90
52899;DHT22;38763;53.096;6.062;2023-05-14T14:08:59;21.20;99.90
52899;DHT22;38763;53.096;6.062;2023-05-14T14:11:25;21.40;99.90
52899;DHT22;38763;53.096;6.062;2023-05-14T14:13:52;21.40;99.90
52899;DHT22;38763;53.096;6.062;2023-05-14T14:16:17;21.60;99.90
52899;DHT22;38763;53.096;6.062;2023-05-14T14:18:43;21.50;99.90
52899;DHT22;38763;53.096;6.062;2023-05-14T14:21:09;21.60;99.90
52899;DHT22;38763;53.096;6.062;2023-05-14T14:23:35;21.50;99.90
52899;DHT22;38763;53.096;6.062;2023-05-14T14:26:00;21.50;99.90
52899;DHT22;38763;53.096;6.062;2023-05-14T14:28:26;21.30;99.90
52899;DHT22;38763;53.096;6.062;2023-05-14T14:30:52;21.10;99.90
52899;DHT22;38763;53.096;6.062;2023-05-14T14:33:17;21.20;99.90
52899;DHT22;38763;53.096;6.062;2023-05-14T14:35:43;21.20;99.90
52899;DHT22;38763;53.096;6.062;2023-05-14T14:38:08;21.20;99.90
52899;DHT22;38763;53.096;6.062;2023-05-14T14:40:34;21.30;99.90
52899;DHT22;38763;53.096;6.062;2023-05-14T14:43:00;21.50;99.90
52899;DHT22;38763;53.096;6.062;2023-05-14T14:45:26;21.40;99.90
52899;DHT22;38763;53.096;6.062;2023-05-14T14:48:21;21.20;99.90
52899;DHT22;38763;53.096;6.062;2023-05-14T14:50:47;21.00;99.90
52899;DHT22;38763;53.096;6.062;2023-05-14T14:53:13;21.10;99.90
52899;DHT22;38763;53.096;6.062;2023-05-14T14:55:39;20.90;99.90
52899;DHT22;38763;53.096;6.062;2023-05-14T14:58:05;20.90;99.90
52899;DHT22;38763;53.096;6.062;2023-05-14T15:00:30;21.10;99.90
52899;DHT22;38763;53.096;6.062;2023-05-14T15:02:56;20.90;99.90
52899;DHT22;38763;53.096;6.062;2023-05-14T15:05:22;20.80;99.90
52899;DHT22;38763;53.096;6.062;2023-05-14T15:07:48;20.80;99.90
52899;DHT22;38763;53.096;6.062;2023-05-14T15:10:13;20.30;99.90
52899;DHT22;38763;53.096;6.062;2023-05-14T15:12:39;20.50;99.90
52899;DHT22;38763;53.096;6.062;2023-05-14T15:15:05;20.60;99.90
52899;DHT22;38763;53.096;6.062;2023-05-14T15:17:31;20.60;99.90
52899;DHT22;38763;53.096;6.062;2023-05-14T15:19:57;20.50;99.90
52899;DHT22;38763;53.096;6.062;2023-05-14T15:22:22;20.20;99.90
52899;DHT22;38763;53.096;6.062;2023-05-14T15:24:48;20.10;99.90
52899;DHT22;38763;53.096;6.062;2023-05-14T15:27:14;20.30;99.90
52899;DHT22;38763;53.096;6.062;2023-05-14T15:29:40;20.30;99.90
52899;DHT22;38763;53.096;6.062;2023-05-14T15:32:06;20.20;99.90
52899;DHT22;38763;53.096;6.062;2023-05-14T15:34:32;20.20;99.90
52899;DHT22;38763;53.096;6.062;2023-05-14T15:36:57;20.30;99.90